Time;durP1;ratioP1;P1;durP2;ratioP2;P2;SDS_P1;SDS_P2;PMS_P1;PMS_P2;Temp;Humidity;BMP_temperature;BMP_pressure;BME280_temperature;BME280_humidity;BME280_pressure;Samples;Min_cycle;Max_cycle;Signal;HPM_P1;HPM_P2
2022/04/13 01:33:59;;;;;;;;;3.40;1.60;;;;;15.14;100.00;100925.31;5040333;28;44841;-87
2022/04/13 01:36:26;;;;;;;;;2.00;0.80;;;;;15.14;100.00;100929.81;5032972;28;44819;-86
2022/04/13 01:38:52;;;;;;;;;2.80;2.00;;;;;15.12;100.00;100934.44;5028918;28;45405;-87
2022/04/13 01:41:17;;;;;;;;;3.00;3.00;;;;;15.11;100.00;100924.72;5029605;28;45961;-87
2022/04/13 01:43:44;;;;;;;;;3.50;1.25;;;;;15.07;100.00;100936.66;5030878;28;45276;-85
2022/04/13 01:46:11;;;;;;;;;2.20;2.20;;;;;15.09;100.00;100938.22;5015991;28;44742;-85
2022/04/13 01:48:38;;;;;;;;;1.60;1.60;;;;;15.10;100.00;100941.75;5039930;28;44881;-86
2022/04/13 01:51:03;;;;;;;;;4.00;3.00;;;;;15.11;100.00;100944.28;5040628;28;45100;-85
2022/04/13 01:53:29;;;;;;;;;2.00;1.50;;;;;15.11;100.00;100944.28;5021590;28;44756;-85
2022/04/13 01:56:00;;;;;;;;;2.00;2.00;;;;;15.11;100.00;100946.13;5042883;28;44799;-85
2022/04/13 01:58:25;;;;;;;;;2.20;2.20;;;;;15.12;100.00;100943.31;5039736;28;45281;-85
2022/04/13 02:00:54;;;;;;;;;2.25;2.00;;;;;15.12;100.00;100947.81;5040354;28;46875;-85
2022/04/13 02:03:23;;;;;;;;;3.20;3.20;;;;;15.12;100.00;100953.16;5039770;28;44802;-85
2022/04/13 02:05:49;;;;;;;;;10.40;2.60;;;;;15.09;100.00;100961.47;5028383;28;44768;-85
2022/04/13 02:08:15;;;;;;;;;3.00;2.00;;;;;15.09;100.00;100958.78;5029497;28;44826;-85
2022/04/13 02:10:40;;;;;;;;;4.25;3.00;;;;;15.10;100.00;100953.31;5025583;28;47012;-86
2022/04/13 02:13:05;;;;;;;;;2.25;2.00;;;;;15.11;100.00;100954.16;5024596;28;45270;-85
2022/04/13 02:15:32;;;;;;;;;3.00;3.00;;;;;15.10;100.00;100955.13;5040847;28;45447;-85
2022/04/13 02:17:58;;;;;;;;;0.00;0.00;;;;;15.11;100.00;100963.03;5022088;28;44920;-85
2022/04/13 02:20:24;;;;;;;;;3.00;2.00;;;;;15.08;100.00;100957.91;5022370;28;46891;-85
2022/04/13 02:22:49;;;;;;;;;3.00;2.00;;;;;15.09;100.00;100959.63;5024751;28;45425;-86
2022/04/13 02:25:15;;;;;;;;;2.25;2.25;;;;;15.07;100.00;100961.56;5043350;28;45235;-84
2022/04/13 02:27:42;;;;;;;;;2.00;2.00;;;;;15.03;100.00;100964.63;5024256;28;45444;-85
2022/04/13 02:30:08;;;;;;;;;3.60;2.40;;;;;15.03;100.00;100972.66;5025974;28;46918;-85
2022/04/13 02:32:38;;;;;;;;;4.80;4.20;;;;;15.01;100.00;100970.09;5035719;28;45041;-85
2022/04/13 02:35:03;;;;;;;;;3.20;2.00;;;;;15.01;100.00;100971.94;5032174;28;44843;-85
2022/04/13 02:37:29;;;;;;;;;2.80;2.80;;;;;14.89;100.00;100979.13;5052102;28;44927;-84
2022/04/13 02:39:55;;;;;;;;;2.75;2.25;;;;;14.82;100.00;100978.78;5033816;28;45976;-85
2022/04/13 02:42:20;;;;;;;;;3.50;2.50;;;;;14.74;100.00;100978.53;5016873;28;44798;-85
2022/04/13 02:44:46;;;;;;;;;3.75;2.50;;;;;14.73;100.00;100982.19;5055784;28;44825;-86
2022/04/13 03:01:00;;;;;;;;;3.00;3.00;;;;;14.67;100.00;100963.13;5074333;28;45325;-85
2022/04/13 03:03:44;;;;;;;;;5.60;4.00;;;;;14.63;100.00;100973.22;5088050;28;45531;-86
2022/04/13 03:07:25;;;;;;;;;;;;;;;;;;;;;
2022/04/13 03:25:18;;;;;;;;;;;;;;;;;;;;;
2022/04/13 03:29:01;;;;;;;;;;;;;;;;;;;;;
2022/04/13 03:34:35;;;;;;;;;5.60;3.80;;;;;14.22;100.00;101038.78;4929250;28;45460;-87
2022/04/13 03:37:01;;;;;;;;;5.20;5.20;;;;;14.17;100.00;101032.06;4927951;28;44649;-86
2022/04/13 03:39:31;;;;;;;;;5.75;3.50;;;;;14.09;100.00;101041.53;4924372;28;44958;-86
2022/04/13 03:44:49;;;;;;;;;4.20;3.20;;;;;14.02;100.00;101060.81;4944408;28;44850;-88
2022/04/13 03:47:15;;;;;;;;;6.25;4.50;;;;;14.00;100.00;101044.06;4942309;28;44888;-89
2022/04/13 03:49:41;;;;;;;;;5.00;5.00;;;;;14.01;100.00;101057.28;4947547;28;44916;-87
2022/04/13 03:52:07;;;;;;;;;4.75;4.00;;;;;13.99;100.00;101056.56;4947884;28;45030;-89
2022/04/13 03:54:33;;;;;;;;;8.00;8.00;;;;;14.01;100.00;101051.94;5021603;28;45417;-89
2022/04/13 03:57:24;;;;;;;;;2.50;2.50;;;;;14.05;100.00;101060.59;5089763;28;44814;-89
2022/04/13 04:00:11;;;;;;;;;;;;;;;;;;;;;
2022/04/13 04:03:04;;;;;;;;;3.00;3.00;;;;;13.94;100.00;101056.06;5066130;28;74589;-88
2022/04/13 04:05:34;;;;;;;;;6.20;4.40;;;;;13.92;100.00;101066.00;5003002;28;44771;-87
2022/04/13 04:08:03;;;;;;;;;6.00;6.00;;;;;13.86;100.00;101064.66;5002443;28;45310;-88
2022/04/13 04:10:29;;;;;;;;;5.00;4.50;;;;;13.81;100.00;101074.84;4987286;28;44969;-89
2022/04/13 04:17:27;;;;;;;;;;;;;;;;;;;;;
2022/04/13 04:30:01;;;;;;;;;9.20;7.40;;;;;13.68;100.00;101100.75;4943279;28;44781;-90
2022/04/13 04:32:48;;;;;;;;;;;;;;;;;;;;;
2022/04/13 04:35:14;;;;;;;;;6.00;6.00;;;;;13.68;100.00;101114.09;4941267;28;70273;-90
2022/04/13 04:37:42;;;;;;;;;8.00;8.00;;;;;13.69;100.00;101104.28;4939764;28;46812;-89
2022/04/13 04:40:09;;;;;;;;;9.20;9.20;;;;;13.67;100.00;101112.38;4941455;28;44925;-90
2022/04/13 04:42:49;;;;;;;;;11.60;8.60;;;;;13.60;100.00;101113.81;4946101;28;44832;-90
2022/04/13 04:45:24;;;;;;;;;11.25;8.50;;;;;13.61;100.00;101129.72;5005699;28;44865;-89
2022/04/13 04:47:56;;;;;;;;;9.25;7.50;;;;;13.64;100.00;101134.00;4987453;28;45595;-89
2022/04/13 04:51:12;;;;;;;;;10.80;9.80;;;;;13.65;100.00;101121.50;4987237;28;44867;-90
2022/04/13 05:12:04;;;;;;;;;10.00;10.00;;;;;13.80;100.00;101123.03;4909345;29;44893;-88
2022/04/13 05:18:24;;;;;;;;;12.60;9.80;;;;;13.84;100.00;101136.03;4899223;29;44764;-89
2022/04/13 05:21:23;;;;;;;;;11.20;8.00;;;;;13.87;100.00;101142.97;4887679;29;45575;-88
2022/04/13 05:27:49;;;;;;;;;10.40;8.40;;;;;13.89;100.00;101141.03;4801473;29;45224;-88
2022/04/13 05:30:56;;;;;;;;;;;;;;;;;;;;;
2022/04/13 05:33:22;;;;;;;;;13.60;12.80;;;;;13.93;100.00;101128.31;4845363;29;68041;-90
2022/04/13 05:36:06;;;;;;;;;10.75;10.50;;;;;13.96;100.00;101122.72;4851847;29;44915;-88
2022/04/13 05:42:26;;;;;;;;;12.40;10.80;;;;;14.04;100.00;101147.91;4797964;29;44802;-88
2022/04/13 05:50:43;;;;;;;;;13.75;12.50;;;;;14.11;100.00;101140.28;5018919;28;45388;-83
2022/04/13 05:53:09;;;;;;;;;14.50;14.50;;;;;14.08;100.00;101146.72;5009287;28;44721;-90
2022/04/13 05:55:34;;;;;;;;;9.50;5.50;;;;;14.11;100.00;101145.63;4995534;28;44747;-86
2022/04/13 05:58:00;;;;;;;;;11.50;10.75;;;;;14.15;100.00;101150.63;5016214;28;44917;-86
2022/04/13 06:00:27;;;;;;;;;15.00;13.25;;;;;14.19;100.00;101159.25;4999859;28;45280;-89
2022/04/13 06:02:52;;;;;;;;;17.00;14.00;;;;;14.23;100.00;101157.22;4995612;28;44837;-90
2022/04/13 06:05:18;;;;;;;;;14.00;12.75;;;;;14.22;100.00;101158.19;5010938;28;44725;-89
2022/04/13 06:07:44;;;;;;;;;14.75;13.25;;;;;14.24;100.00;101164.25;5010691;28;44806;-89
2022/04/13 06:10:10;;;;;;;;;14.50;10.50;;;;;14.29;100.00;101170.09;4989201;28;46703;-88
2022/04/13 06:12:36;;;;;;;;;13.60;11.20;;;;;14.33;100.00;101179.59;5006185;28;44784;-88
2022/04/13 06:15:06;;;;;;;;;15.00;15.00;;;;;14.35;100.00;101181.16;4984759;28;44713;-90
2022/04/13 06:17:32;;;;;;;;;10.75;10.25;;;;;14.38;100.00;101180.09;5003086;28;45286;-89
2022/04/13 06:19:58;;;;;;;;;11.00;10.00;;;;;14.39;100.00;101184.47;5003357;28;45218;-89
2022/04/13 06:22:31;;;;;;;;;10.60;10.60;;;;;14.42;100.00;101186.94;5004771;28;45377;-89
2022/04/13 06:24:56;;;;;;;;;14.50;11.25;;;;;14.46;100.00;101179.53;5004002;28;44793;-89
2022/04/13 06:27:22;;;;;;;;;22.50;12.25;;;;;14.46;100.00;101191.06;5003408;28;44831;-90
2022/04/13 06:29:47;;;;;;;;;16.00;13.50;;;;;14.49;100.00;101190.84;5008907;28;45298;-90
2022/04/13 06:32:14;;;;;;;;;16.00;14.00;;;;;14.48;100.00;101205.19;5012870;28;44740;-90
2022/04/13 06:34:42;;;;;;;;;12.20;12.20;;;;;14.47;100.00;101198.13;4998955;28;44800;-89
2022/04/13 06:37:10;;;;;;;;;13.75;12.00;;;;;14.50;100.00;101202.41;4995022;28;45240;-89
2022/04/13 06:39:35;;;;;;;;;14.75;12.50;;;;;14.44;100.00;101201.00;5016328;28;45410;-90
2022/04/13 06:42:01;;;;;;;;;13.50;12.00;;;;;14.49;100.00;101214.91;5010986;28;44790;-88
2022/04/13 06:44:28;;;;;;;;;20.00;15.00;;;;;14.48;100.00;101215.03;4992686;28;44872;-89
2022/04/13 06:47:19;;;;;;;;;17.25;14.75;;;;;14.47;100.00;101229.34;5010145;28;45493;-89
2022/04/13 06:49:48;;;;;;;;;13.50;11.50;;;;;14.46;100.00;101235.69;4986995;28;45251;-88
2022/04/13 06:52:14;;;;;;;;;12.20;11.00;;;;;14.45;100.00;101236.63;5023219;28;44695;-88
2022/04/13 06:54:41;;;;;;;;;15.25;12.50;;;;;14.45;100.00;101253.50;5002591;28;44942;-87
2022/04/13 06:57:47;;;;;;;;;13.75;13.75;;;;;14.45;100.00;101247.31;5002482;28;45377;-86
2022/04/13 07:00:23;;;;;;;;;14.00;12.00;;;;;14.45;100.00;101255.34;4983448;28;45420;-83
2022/04/13 07:02:49;;;;;;;;;16.60;13.20;;;;;14.45;100.00;101260.69;4974231;28;44827;-85
2022/04/13 07:08:41;;;;;;;;;22.50;14.00;;;;;14.46;100.00;101279.28;4971852;28;44894;-84
2022/04/13 07:11:23;;;;;;;;;15.00;12.25;;;;;14.49;100.00;101284.44;4978639;28;45316;-86
2022/04/13 07:21:04;;;;;;;;;;;;;;;;;;;;;
2022/04/13 07:27:29;;;;;;;;;2.40;1.00;;;;;14.39;100.00;101316.31;4877586;29;45407;-87
2022/04/13 07:36:41;;;;;;;;;14.50;13.00;;;;;14.43;100.00;101314.25;4844867;29;45540;-85
2022/04/13 08:03:45;;;;;;;;;15.20;13.40;;;;;14.90;100.00;101315.25;4786376;25;45473;-89
2022/04/13 09:26:10;;;;;;;;;15.75;12.50;;;;;15.26;100.00;101420.47;4917860;25;45215;-87
2022/04/13 09:32:35;;;;;;;;;13.20;13.20;;;;;15.36;100.00;101433.03;5058578;28;45337;-88
2022/04/13 10:03:05;;;;;;;;;14.25;9.75;;;;;15.85;100.00;101423.91;4889426;29;44842;-89
2022/04/13 10:20:04;;;;;;;;;;;;;;;;;;;;;
2022/04/13 10:23:02;;;;;;;;;12.60;8.00;;;;;16.01;100.00;101417.38;5035447;28;72124;-89
2022/04/13 10:25:29;;;;;;;;;14.00;11.20;;;;;15.97;100.00;101400.69;5023540;28;45290;-89
2022/04/13 10:28:01;;;;;;;;;8.40;8.00;;;;;16.02;100.00;101403.84;5012568;28;44895;-86
2022/04/13 10:31:07;;;;;;;;;14.00;12.00;;;;;16.00;100.00;101405.78;5043971;28;45489;-89
2022/04/13 10:33:52;;;;;;;;;10.40;10.40;;;;;16.07;100.00;101416.88;5020195;28;45314;-89
2022/04/13 10:36:39;;;;;;;;;;;;;;;;;;;;;
2022/04/13 10:39:32;;;;;;;;;;;;;;;;;;;;;
2022/04/13 10:49:17;;;;;;;;;10.80;10.40;;;;;16.73;100.00;101400.84;4927312;28;44864;-86
2022/04/13 10:51:45;;;;;;;;;11.50;11.50;;;;;16.90;100.00;101405.69;4919637;28;44915;-86
2022/04/13 10:54:14;;;;;;;;;8.60;8.60;;;;;17.09;100.00;101415.75;4910988;28;46691;-86
2022/04/13 10:56:49;;;;;;;;;10.20;8.20;;;;;17.21;100.00;101420.97;4911604;28;44811;-86
2022/04/13 10:59:30;;;;;;;;;11.00;11.00;;;;;17.21;100.00;101399.47;4927095;28;44818;-87
2022/04/13 11:03:03;;;;;;;;;;;;;;;;;;;;;
2022/04/13 11:06:11;;;;;;;;;10.20;7.80;;;;;17.27;100.00;101394.56;4874476;29;73659;-87
2022/04/13 11:12:09;;;;;;;;;14.40;11.00;;;;;17.33;100.00;101394.88;4868463;29;44794;-88
2022/04/13 11:18:16;;;;;;;;;12.00;11.60;;;;;17.34;100.00;101398.41;4883081;29;45190;-89
2022/04/13 11:21:07;;;;;;;;;14.20;12.40;;;;;17.29;100.00;101397.97;4917355;28;45366;-88
2022/04/13 11:23:52;;;;;;;;;15.40;14.60;;;;;17.15;100.00;101405.34;4972971;28;44765;-87
2022/04/13 11:26:41;;;;;;;;;16.75;13.50;;;;;16.71;100.00;101400.94;4967617;28;45258;-88
2022/04/13 11:29:09;;;;;;;;;11.80;11.80;;;;;16.32;100.00;101410.41;4944323;28;45268;-87
2022/04/13 11:32:01;;;;;;;;;14.20;13.20;;;;;16.22;100.00;101412.13;4962634;28;44816;-89
2022/04/13 11:34:59;;;;;;;;;13.20;11.60;;;;;16.10;100.00;101413.94;4938135;28;44841;-90
2022/04/13 11:37:47;;;;;;;;;12.40;11.60;;;;;16.14;100.00;101415.41;4953323;28;44834;-89
2022/04/13 11:40:18;;;;;;;;;13.00;7.20;;;;;16.24;100.00;101418.22;4962962;28;45536;-89
2022/04/13 11:42:52;;;;;;;;;8.40;8.20;;;;;16.17;100.00;101402.63;4957275;28;44850;-90
2022/04/13 11:45:22;;;;;;;;;11.00;7.80;;;;;16.09;100.00;101397.00;4977582;28;45252;-91
2022/04/13 11:47:53;;;;;;;;;12.40;10.80;;;;;16.17;100.00;101389.22;4978101;28;44910;-91
2022/04/13 11:50:25;;;;;;;;;12.60;10.80;;;;;16.43;100.00;101387.09;5051424;28;45833;-90
2022/04/13 11:53:13;;;;;;;;;10.40;9.60;;;;;16.57;100.00;101385.13;5029440;28;45221;-88
2022/04/13 11:55:39;;;;;;;;;10.40;9.20;;;;;16.60;100.00;101387.56;5046011;28;44766;-90
2022/04/13 11:58:04;;;;;;;;;7.75;5.50;;;;;16.58;100.00;101390.38;5021671;28;45545;-89
2022/04/13 12:00:50;;;;;;;;;8.50;8.50;;;;;16.64;100.00;101391.72;5029830;28;45001;-87
2022/04/13 12:03:25;;;;;;;;;7.20;7.20;;;;;16.69;100.00;101393.03;5026950;28;44733;-90
2022/04/13 12:05:56;;;;;;;;;13.20;9.80;;;;;16.70;100.00;101404.63;5044571;28;44727;-90
2022/04/13 12:08:30;;;;;;;;;9.60;8.40;;;;;16.72;100.00;101405.38;5024367;28;45326;-89
2022/04/13 12:11:05;;;;;;;;;9.80;9.80;;;;;16.73;100.00;101409.78;5025286;28;45446;-91
2022/04/13 12:13:51;;;;;;;;;10.60;9.00;;;;;16.76;100.00;101414.88;5026434;28;44671;-90
2022/04/13 12:16:27;;;;;;;;;12.60;10.60;;;;;16.48;100.00;101416.22;5027688;28;44831;-90
2022/04/13 12:19:00;;;;;;;;;10.00;8.80;;;;;16.22;100.00;101425.53;5027878;28;45509;-91
2022/04/13 12:21:29;;;;;;;;;9.40;8.20;;;;;16.20;100.00;101417.63;5048271;28;45558;-90
2022/04/13 12:23:56;;;;;;;;;10.40;10.40;;;;;16.25;100.00;101426.16;5029416;28;45512;-91
2022/04/13 12:26:37;;;;;;;;;11.25;8.00;;;;;16.24;100.00;101419.06;5010045;28;45233;-91
2022/04/13 12:29:22;;;;;;;;;11.80;6.80;;;;;16.42;100.00;101422.09;5032054;28;44763;-92
2022/04/13 12:31:56;;;;;;;;;10.40;9.00;;;;;16.69;100.00;101419.03;5030848;28;46892;-91
2022/04/13 12:34:26;;;;;;;;;4.40;4.40;;;;;16.60;100.00;101409.88;5003209;28;45244;-91
2022/04/13 12:36:59;;;;;;;;;4.00;4.00;;;;;16.41;100.00;101421.25;5042169;28;44691;-90
2022/04/13 12:39:32;;;;;;;;;7.60;6.20;;;;;16.28;100.00;101423.22;5017937;28;44855;-90
2022/04/13 12:41:59;;;;;;;;;3.00;1.00;;;;;16.33;100.00;101428.19;5028286;28;45245;-91
2022/04/13 12:44:25;;;;;;;;;2.80;2.80;;;;;16.42;100.00;101424.78;4994855;28;45331;-89
2022/04/13 12:47:03;;;;;;;;;3.20;2.60;;;;;16.51;100.00;101424.03;5009371;28;44828;-91
2022/04/13 12:49:30;;;;;;;;;3.80;2.80;;;;;16.49;100.00;101428.69;5029604;28;44658;-91
2022/04/13 12:51:57;;;;;;;;;3.20;3.20;;;;;16.47;100.00;101433.31;5030297;28;45176;-91
2022/04/13 12:54:24;;;;;;;;;5.00;3.00;;;;;16.62;100.00;101428.53;5011343;28;45258;-90
2022/04/13 12:56:51;;;;;;;;;3.40;3.40;;;;;16.75;100.00;101423.91;5013360;28;45311;-91
2022/04/13 12:59:25;;;;;;;;;3.40;2.40;;;;;16.91;100.00;101434.22;5015036;28;44920;-90
2022/04/13 13:01:54;;;;;;;;;3.40;3.00;;;;;17.03;100.00;101435.06;5032917;28;45298;-91
2022/04/13 13:04:27;;;;;;;;;3.60;3.60;;;;;17.08;100.00;101433.69;5009315;28;44735;-91
2022/04/13 13:06:54;;;;;;;;;6.20;3.80;;;;;17.24;100.00;101446.69;5025619;28;44682;-92
2022/04/13 13:09:22;;;;;;;;;5.40;4.60;;;;;17.23;100.00;101441.44;5014717;28;44890;-93
2022/04/13 13:11:57;;;;;;;;;5.80;4.20;;;;;17.25;100.00;101442.16;5016578;28;45269;-91
2022/04/13 13:14:38;;;;;;;;;4.00;4.00;;;;;17.34;100.00;101431.50;5033858;28;45484;-92
2022/04/13 13:17:21;;;;;;;;;5.20;4.40;;;;;17.35;100.00;101430.50;5028338;28;45510;-90
2022/04/13 13:19:52;;;;;;;;;6.60;3.60;;;;;17.25;100.00;101431.41;5005836;28;44884;-91
2022/04/13 13:22:19;;;;;;;;;4.00;4.00;;;;;17.35;100.00;101435.88;5006110;28;47245;-91
2022/04/13 13:24:54;;;;;;;;;4.80;4.20;;;;;17.33;100.00;101434.31;5005394;28;44816;-91
2022/04/13 13:27:27;;;;;;;;;8.00;4.40;;;;;17.40;100.00;101433.66;5029875;28;44760;-91
2022/04/13 13:29:53;;;;;;;;;5.60;4.40;;;;;17.57;100.00;101434.06;5033420;28;44855;-90
2022/04/13 13:32:21;;;;;;;;;4.60;4.60;;;;;17.74;100.00;101438.88;5038934;28;46894;-89
2022/04/13 13:34:59;;;;;;;;;3.60;3.60;;;;;17.63;100.00;101431.69;5041957;28;44719;-88
2022/04/13 13:37:34;;;;;;;;;6.60;6.60;;;;;17.63;100.00;101428.16;5043439;28;44644;-89
2022/04/13 13:40:02;;;;;;;;;5.40;5.40;;;;;17.76;100.00;101425.31;5016846;28;44856;-90
2022/04/13 13:42:28;;;;;;;;;3.40;3.40;;;;;17.95;100.00;101425.44;5034311;28;45168;-91
2022/04/13 13:44:53;;;;;;;;;5.25;5.25;;;;;18.12;100.00;101419.41;5011392;28;44788;-90
2022/04/13 13:47:19;;;;;;;;;5.75;4.00;;;;;18.35;100.00;101412.00;5026376;28;44740;-92
2022/04/13 13:49:45;;;;;;;;;7.50;4.00;;;;;18.66;100.00;101423.59;5042404;28;44843;-90
2022/04/13 13:52:11;;;;;;;;;4.20;4.20;;;;;18.95;100.00;101422.78;5037073;28;45225;-90
2022/04/13 13:54:37;;;;;;;;;4.75;3.75;;;;;19.18;100.00;101420.66;5028735;28;44711;-92
2022/04/13 13:57:03;;;;;;;;;4.00;3.80;;;;;19.31;100.00;101421.25;5033110;28;44697;-90
2022/04/13 13:59:54;;;;;;;;;4.80;4.00;;;;;19.46;100.00;101421.66;5037061;28;44835;-92
2022/04/13 14:02:22;;;;;;;;;4.40;4.40;;;;;19.66;100.00;101417.97;5031874;28;45436;-90
2022/04/13 14:04:48;;;;;;;;;4.00;4.00;;;;;19.76;100.00;101415.25;5029234;28;44614;-90
2022/04/13 14:07:16;;;;;;;;;5.75;4.00;;;;;19.75;100.00;101408.16;5024994;28;44812;-91
2022/04/13 14:09:44;;;;;;;;;4.00;4.00;;;;;19.82;100.00;101408.41;5009059;28;44942;-92
2022/04/13 14:12:10;;;;;;;;;5.00;3.80;;;;;19.87;100.00;101407.00;5009166;28;45492;-92
2022/04/13 14:14:36;;;;;;;;;4.00;4.00;;;;;19.99;100.00;101394.16;5015751;28;44739;-91
2022/04/13 14:17:05;;;;;;;;;4.50;4.50;;;;;20.10;100.00;101409.31;5038901;28;44801;-90
2022/04/13 14:19:33;;;;;;;;;4.80;3.80;;;;;20.08;100.00;101405.94;5017345;28;44918;-91
2022/04/13 14:21:59;;;;;;;;;4.20;4.20;;;;;19.91;100.00;101411.06;5027379;28;45367;-90
2022/04/13 14:24:25;;;;;;;;;3.40;3.40;;;;;19.91;100.00;101410.22;5019425;28;45434;-89
2022/04/13 14:26:50;;;;;;;;;3.00;3.00;;;;;20.01;100.00;101408.34;5005510;28;45414;-89
2022/04/13 14:29:17;;;;;;;;;7.50;5.00;;;;;20.19;100.00;101413.81;5008751;28;44876;-89
2022/04/13 14:31:46;;;;;;;;;4.80;3.80;;;;;20.22;100.00;101413.53;5012239;28;45449;-89
2022/04/13 14:34:12;;;;;;;;;6.20;4.40;;;;;20.35;100.00;101408.63;5011303;28;44788;-89
2022/04/13 14:36:40;;;;;;;;;3.25;3.25;;;;;20.45;100.00;101409.44;5010152;28;45067;-89
2022/04/13 14:39:05;;;;;;;;;7.40;5.00;;;;;20.58;100.00;101408.25;5010412;28;44851;-90
2022/04/13 14:41:31;;;;;;;;;2.75;2.75;;;;;20.69;100.00;101400.78;4991211;28;46756;-90
2022/04/13 14:43:56;;;;;;;;;4.75;4.00;;;;;20.66;100.00;101398.41;4991343;28;44800;-89
2022/04/13 14:46:22;;;;;;;;;3.75;3.50;;;;;20.63;100.00;101396.00;4974111;28;44881;-91
2022/04/13 14:48:49;;;;;;;;;2.50;2.50;;;;;20.50;100.00;101388.28;4975721;28;44812;-91
2022/04/13 14:51:15;;;;;;;;;3.00;3.00;;;;;20.41;100.00;101391.00;4993712;28;45228;-90
2022/04/13 14:53:40;;;;;;;;;2.40;2.40;;;;;20.40;100.00;101389.28;5012815;28;44662;-90
2022/04/13 14:56:06;;;;;;;;;2.75;2.75;;;;;20.42;100.00;101388.16;4993207;28;44768;-90
2022/04/13 14:58:33;;;;;;;;;4.00;4.00;;;;;20.38;100.00;101385.91;5014837;28;44874;-89
2022/04/13 15:00:58;;;;;;;;;7.80;4.40;;;;;20.31;100.00;101388.34;5016378;28;46855;-90
2022/04/13 15:03:24;;;;;;;;;4.00;4.00;;;;;20.23;100.00;101381.00;5010716;28;45331;-90
2022/04/13 15:05:51;;;;;;;;;4.00;3.75;;;;;20.05;100.00;101377.38;4993140;28;44968;-89
2022/04/13 15:08:16;;;;;;;;;2.80;2.80;;;;;20.01;100.00;101392.16;4991919;28;44899;-90
2022/04/13 15:10:43;;;;;;;;;3.25;3.25;;;;;19.99;100.00;101391.47;4987195;28;45319;-90
2022/04/13 15:13:09;;;;;;;;;5.00;5.00;;;;;19.95;100.00;101401.69;4990081;28;44708;-89
2022/04/13 15:15:34;;;;;;;;;5.00;3.25;;;;;19.93;100.00;101395.63;5006348;28;44734;-87
2022/04/13 15:18:00;;;;;;;;;5.50;5.00;;;;;19.93;100.00;101389.38;5003934;28;44935;-90
2022/04/13 15:20:25;;;;;;;;;3.00;3.00;;;;;19.92;100.00;101393.03;5006501;28;46358;-90
2022/04/13 15:22:51;;;;;;;;;7.25;4.00;;;;;19.89;100.00;101391.50;4989305;28;44749;-89
2022/04/13 15:25:17;;;;;;;;;4.00;3.00;;;;;19.94;100.00;101396.47;5006580;28;44767;-89
2022/04/13 15:27:43;;;;;;;;;4.00;3.00;;;;;19.92;100.00;101391.22;5036064;28;44707;-90
2022/04/13 15:30:16;;;;;;;;;6.50;6.50;;;;;19.92;100.00;101399.31;5019924;28;45288;-90
2022/04/13 15:32:42;;;;;;;;;4.00;4.00;;;;;20.03;100.00;101392.88;5013185;28;44783;-89
2022/04/13 15:35:11;;;;;;;;;4.60;4.60;;;;;20.24;100.00;101392.63;5014612;28;44716;-89
2022/04/13 15:37:37;;;;;;;;;6.20;6.20;;;;;20.54;100.00;101395.06;5012630;28;44906;-88
2022/04/13 15:40:03;;;;;;;;;5.00;4.25;;;;;20.87;100.00;101390.00;5010041;28;46653;-88
2022/04/13 15:42:31;;;;;;;;;7.60;6.80;;;;;21.11;100.00;101397.50;5010225;28;44696;-89
2022/04/13 15:44:59;;;;;;;;;6.80;5.20;;;;;21.23;100.00;101400.81;5007293;28;45326;-89
2022/04/13 15:47:25;;;;;;;;;7.40;6.20;;;;;21.25;100.00;101407.75;4983939;28;44859;-88
2022/04/13 15:49:51;;;;;;;;;5.00;4.40;;;;;21.13;100.00;101411.72;5002272;28;46306;-89
2022/04/13 15:52:17;;;;;;;;;7.20;4.40;;;;;21.06;100.00;101405.22;4984849;28;44872;-88
2022/04/13 15:54:43;;;;;;;;;5.20;3.80;;;;;21.14;100.00;101413.41;4992107;28;44744;-89
2022/04/13 15:57:09;;;;;;;;;4.00;4.00;;;;;21.21;100.00;101410.91;4965568;28;44907;-89
2022/04/13 15:59:34;;;;;;;;;4.75;4.75;;;;;21.16;100.00;101424.06;4982796;28;46555;-89
2022/04/13 16:02:00;;;;;;;;;5.75;4.50;;;;;21.02;100.00;101428.13;4987069;28;44795;-89
2022/04/13 16:04:26;;;;;;;;;4.75;4.25;;;;;20.84;100.00;101414.63;4950987;28;45435;-89
2022/04/13 16:06:52;;;;;;;;;5.00;5.00;;;;;20.77;100.00;101418.94;4967825;28;44949;-90
2022/04/13 16:09:18;;;;;;;;;3.60;2.40;;;;;20.69;100.00;101427.78;4983478;28;45531;-89
2022/04/13 16:11:43;;;;;;;;;6.00;6.00;;;;;20.60;100.00;101427.84;4987157;28;44835;-88
2022/04/13 16:14:09;;;;;;;;;6.00;4.50;;;;;20.54;100.00;101435.53;4984441;28;45260;-88
2022/04/13 16:16:34;;;;;;;;;4.00;4.00;;;;;20.48;100.00;101430.75;4980969;28;45454;-89
2022/04/13 16:19:00;;;;;;;;;6.50;5.00;;;;;20.44;100.00;101429.31;4964470;28;46511;-88
2022/04/13 16:21:26;;;;;;;;;4.50;4.50;;;;;20.40;100.00;101418.97;4981992;28;44799;-88
2022/04/13 16:23:53;;;;;;;;;3.25;3.00;;;;;20.40;100.00;101427.06;4984551;28;44687;-88
2022/04/13 16:26:18;;;;;;;;;3.60;3.60;;;;;20.21;100.00;101426.19;5005520;28;44945;-89
2022/04/13 16:28:46;;;;;;;;;5.00;5.00;;;;;20.15;100.00;101434.00;5007120;28;45275;-90
2022/04/13 16:31:11;;;;;;;;;5.40;5.40;;;;;20.12;100.00;101431.63;5001092;28;44668;-89
2022/04/13 16:33:36;;;;;;;;;4.00;4.00;;;;;20.10;100.00;101434.44;5007233;28;44629;-90
2022/04/13 16:36:02;;;;;;;;;4.25;4.25;;;;;20.02;100.00;101434.34;4990024;28;45372;-89
2022/04/13 16:38:30;;;;;;;;;4.75;4.75;;;;;19.98;100.00;101430.25;5009085;28;45355;-89
2022/04/13 16:40:58;;;;;;;;;4.60;4.60;;;;;19.88;100.00;101432.13;5014516;28;44694;-87
2022/04/13 16:43:24;;;;;;;;;4.40;3.60;;;;;19.82;100.00;101433.53;4997162;28;45199;-89
2022/04/13 16:45:50;;;;;;;;;43.67;38.33;;;;;19.70;100.00;101443.63;5011170;28;44881;-88
2022/04/13 16:48:15;;;;;;;;;10.25;8.75;;;;;19.64;100.00;101443.38;4992217;28;45982;-89
2022/04/13 16:50:41;;;;;;;;;4.25;4.25;;;;;19.57;100.00;101434.97;5007921;28;44826;-88
2022/04/13 16:53:09;;;;;;;;;6.25;3.00;;;;;19.50;100.00;101439.25;5010529;28;44760;-87
2022/04/13 16:55:35;;;;;;;;;3.40;3.40;;;;;19.40;100.00;101441.09;4993836;28;44768;-88
2022/04/13 16:58:01;;;;;;;;;4.00;4.00;;;;;19.27;100.00;101434.13;5007856;28;45397;-87
2022/04/13 17:00:27;;;;;;;;;8.75;6.25;;;;;19.17;100.00;101435.13;5007498;28;44730;-88
2022/04/13 17:02:52;;;;;;;;;3.75;3.75;;;;;18.93;100.00;101435.53;5008891;28;44801;-88
2022/04/13 17:05:17;;;;;;;;;4.50;4.50;;;;;18.85;100.00;101428.16;5009163;28;45293;-88
2022/04/13 17:07:43;;;;;;;;;5.25;4.25;;;;;18.83;100.00;101438.22;5008196;28;45171;-88
2022/04/13 17:10:09;;;;;;;;;15.00;12.20;;;;;18.79;100.00;101434.09;5012669;28;44759;-87
2022/04/13 17:13:18;;;;;;;;;5.25;3.50;;;;;18.73;100.00;101438.19;5007896;28;45239;-89
2022/04/13 17:15:45;;;;;;;;;6.40;5.40;;;;;18.66;100.00;101450.50;4998396;28;45300;-89
2022/04/13 17:18:10;;;;;;;;;6.20;5.00;;;;;18.58;100.00;101441.41;5003425;28;45166;-88
2022/04/13 17:20:39;;;;;;;;;5.25;4.25;;;;;18.50;100.00;101450.16;4993866;28;44735;-87
2022/04/13 17:23:05;;;;;;;;;3.40;3.40;;;;;18.37;100.00;101465.66;5014922;28;44768;-88
2022/04/13 17:25:30;;;;;;;;;2.25;2.25;;;;;18.32;100.00;101466.06;5006506;28;44931;-88
2022/04/13 17:27:56;;;;;;;;;6.25;6.25;;;;;18.23;100.00;101473.13;5002565;28;45248;-88
2022/04/13 17:30:24;;;;;;;;;4.00;4.00;;;;;18.23;100.00;101467.75;5010502;28;45243;-88
2022/04/13 17:32:49;;;;;;;;;6.60;5.00;;;;;18.22;100.00;101465.19;5026595;28;45416;-88
2022/04/13 17:35:17;;;;;;;;;3.25;3.00;;;;;18.24;100.00;101464.06;5026036;28;44846;-88
2022/04/13 17:37:43;;;;;;;;;6.80;5.40;;;;;18.27;100.00;101473.69;5006995;28;46604;-91
2022/04/13 17:40:09;;;;;;;;;6.50;4.00;;;;;18.31;100.00;101479.66;5030481;28;45223;-89
2022/04/13 17:42:36;;;;;;;;;4.20;4.20;;;;;18.31;100.00;101482.34;5023984;28;44687;-88
2022/04/13 17:45:01;;;;;;;;;5.40;5.40;;;;;18.35;100.00;101481.94;5029666;28;44988;-88
2022/04/13 17:47:27;;;;;;;;;5.00;5.00;;;;;18.38;100.00;101483.53;5030508;28;45538;-89
2022/04/13 17:51:06;;;;;;;;;5.00;5.00;;;;;18.44;100.00;101497.28;5032363;28;44763;-90
2022/04/13 18:05:00;;;;;;;;;;;;;;;;;;;;;